N0,26 Fumimaru — JK5398 — position and weather

sailwx.info

Track history (hours):
 
Tides and Currents Weather Stations Pressure Air Temp Water Temp Dewpoint Dewpoint Depression Visibility Wind Speed Wind Dir Waves Ship Positions

N0,26 Fumimaru

Last reported at 2017-Nov-01 22:48 UTC. Time now 2017-Nov-23 18:41 UTC.
Position N 34°33' E 135°17'.
Warning: this ship's position is 21 days out of date.

Length 39 m.

Type: Ship. MMSI: 431400427.

Date/timePositionNaut miles runAvg speedWind from/ knotsBaromVisibWave heightAir tempDewpointWater temp
2017-Nov-01 22:48N 34°33' E 135°17'4 8.5
2017-Nov-01 22:20N 34°36' E 135°20'3 8.1
2017-Nov-01 22:00N 34°38' E 135°23'4 3.4
2017-Nov-01 20:51N 34°40' E 135°27'0 0.1
2017-Nov-01 20:23N 34°40' E 135°27'0 0.0
2017-Nov-01 19:59N 34°40' E 135°27'0 0.0
2017-Nov-01 19:17N 34°40' E 135°27'0 0.0
2017-Nov-01 18:29N 34°40' E 135°27'0 0.0
2017-Oct-31 23:59N 34°40' E 135°27'0 0.0
2017-Oct-31 23:23N 34°40' E 135°27'0 0.0
2017-Oct-31 22:59N 34°40' E 135°27'0 0.0
2017-Oct-31 22:29N 34°40' E 135°27'0 0.0
2017-Oct-31 21:47N 34°40' E 135°27'0 0.0
2017-Oct-31 21:29N 34°40' E 135°27'0 0.0
2017-Oct-31 20:59N 34°40' E 135°27'0 0.0
2017-Oct-31 20:29N 34°40' E 135°27'0 0.0
2017-Oct-31 19:59N 34°40' E 135°27'0 0.0
2017-Oct-31 19:29N 34°40' E 135°27'0 0.0
2017-Oct-31 18:53N 34°40' E 135°27'0 0.0
2017-Oct-31 18:23N 34°40' E 135°27'0 0.0
2017-Oct-31 17:59N 34°40' E 135°27'0 0.0
2017-Oct-31 17:29N 34°40' E 135°27'0 0.0
2017-Oct-31 16:59N 34°40' E 135°27'0 0.0
2017-Oct-31 16:29N 34°40' E 135°27'0 0.0
2017-Oct-31 15:59N 34°40' E 135°27'0 0.0
2017-Oct-31 15:29N 34°40' E 135°27'0 0.0
2017-Oct-31 14:59N 34°40' E 135°27'0 0.0
2017-Oct-31 14:29N 34°40' E 135°27'0 0.0
2017-Oct-31 13:41N 34°40' E 135°27'0 0.0
2017-Oct-31 13:17N 34°40' E 135°27'0 0.0
2017-Oct-30 22:23N 34°40' E 135°27'0 0.0
2017-Oct-30 21:53N 34°40' E 135°27'0 0.0
2017-Oct-30 21:23N 34°40' E 135°27'0 0.0
2017-Oct-30 20:53N 34°40' E 135°27'0 0.0
2017-Oct-30 20:05N 34°40' E 135°27'0 0.0
2017-Oct-30 19:53N 34°40' E 135°27'0 0.0
2017-Oct-30 19:23N 34°40' E 135°27'0 0.0
2017-Oct-30 18:59N 34°40' E 135°27'0 0.0
2017-Oct-30 18:17N 34°40' E 135°27'0 0.0
2017-Oct-30 17:59N 34°40' E 135°27'0 0.0
2017-Oct-30 17:29N 34°40' E 135°27'0 0.0
2017-Oct-30 16:59N 34°40' E 135°27'0 0.0
2017-Oct-30 15:35N 34°40' E 135°27'0 0.0
2017-Oct-30 15:29N 34°40' E 135°27'0 0.0
2017-Oct-30 14:59N 34°40' E 135°27'0 0.0
2017-Oct-30 14:29N 34°40' E 135°27'0 0.0
2017-Oct-30 13:17N 34°40' E 135°27'0 0.0
2017-Oct-30 12:59N 34°40' E 135°27'0 0.0
2017-Oct-30 12:29N 34°40' E 135°27'0 0.0
2017-Oct-30 11:53N 34°40' E 135°27'0 0.0
2017-Oct-30 11:29N 34°40' E 135°27'0 0.0
2017-Oct-30 10:59N 34°40' E 135°27'0 0.0
2017-Oct-30 10:29N 34°40' E 135°27'0 0.0
2017-Oct-30 02:11N 34°40' E 135°27'  
2017-Oct-24 22:47N 34°40' E 135°27'6 0.3
2017-Oct-24 03:47N 34°43' E 135°20'3 9.1
2017-Oct-24 03:30N 34°40' E 135°22'4 1.0
2017-Oct-23 23:15N 34°40' E 135°27'  
Track history (hours):
 
Tides and Currents Weather Stations Pressure Air Temp Water Temp Dewpoint Dewpoint Depression Visibility Wind Speed Wind Dir Waves Ship Positions

N0,26 Fumimaru

Last reported at 2017-Nov-01 22:48 UTC. Time now 2017-Nov-23 18:41 UTC.
Position N 34°33' E 135°17'.
Warning: this ship's position is 21 days out of date.

Length 39 m.

Type: Ship. MMSI: 431400427.

Date/timePositionNaut miles runAvg speedWind from/ knotsBaromVisibWave heightAir tempDewpointWater temp
2017-Nov-01 22:48N 34°33' E 135°17'4 8.5
2017-Nov-01 22:20N 34°36' E 135°20'3 8.1
2017-Nov-01 22:00N 34°38' E 135°23'4 3.4
2017-Nov-01 20:51N 34°40' E 135°27'0 0.1
2017-Nov-01 20:23N 34°40' E 135°27'0 0.0
2017-Nov-01 19:59N 34°40' E 135°27'0 0.0
2017-Nov-01 19:17N 34°40' E 135°27'0 0.0
2017-Nov-01 18:29N 34°40' E 135°27'0 0.0
2017-Oct-31 23:59N 34°40' E 135°27'0 0.0
2017-Oct-31 23:23N 34°40' E 135°27'0 0.0
2017-Oct-31 22:59N 34°40' E 135°27'0 0.0
2017-Oct-31 22:29N 34°40' E 135°27'0 0.0
2017-Oct-31 21:47N 34°40' E 135°27'0 0.0
2017-Oct-31 21:29N 34°40' E 135°27'0 0.0
2017-Oct-31 20:59N 34°40' E 135°27'0 0.0
2017-Oct-31 20:29N 34°40' E 135°27'0 0.0
2017-Oct-31 19:59N 34°40' E 135°27'0 0.0
2017-Oct-31 19:29N 34°40' E 135°27'0 0.0
2017-Oct-31 18:53N 34°40' E 135°27'0 0.0
2017-Oct-31 18:23N 34°40' E 135°27'0 0.0
2017-Oct-31 17:59N 34°40' E 135°27'0 0.0
2017-Oct-31 17:29N 34°40' E 135°27'0 0.0
2017-Oct-31 16:59N 34°40' E 135°27'0 0.0
2017-Oct-31 16:29N 34°40' E 135°27'0 0.0
2017-Oct-31 15:59N 34°40' E 135°27'0 0.0
2017-Oct-31 15:29N 34°40' E 135°27'0 0.0
2017-Oct-31 14:59N 34°40' E 135°27'0 0.0
2017-Oct-31 14:29N 34°40' E 135°27'0 0.0
2017-Oct-31 13:41N 34°40' E 135°27'0 0.0
2017-Oct-31 13:17N 34°40' E 135°27'0 0.0
2017-Oct-30 22:23N 34°40' E 135°27'0 0.0
2017-Oct-30 21:53N 34°40' E 135°27'0 0.0
2017-Oct-30 21:23N 34°40' E 135°27'0 0.0
2017-Oct-30 20:53N 34°40' E 135°27'0 0.0
2017-Oct-30 20:05N 34°40' E 135°27'0 0.0
2017-Oct-30 19:53N 34°40' E 135°27'0 0.0
2017-Oct-30 19:23N 34°40' E 135°27'0 0.0
2017-Oct-30 18:59N 34°40' E 135°27'0 0.0
2017-Oct-30 18:17N 34°40' E 135°27'0 0.0
2017-Oct-30 17:59N 34°40' E 135°27'0 0.0
2017-Oct-30 17:29N 34°40' E 135°27'0 0.0
2017-Oct-30 16:59N 34°40' E 135°27'0 0.0
2017-Oct-30 15:35N 34°40' E 135°27'0 0.0
2017-Oct-30 15:29N 34°40' E 135°27'0 0.0
2017-Oct-30 14:59N 34°40' E 135°27'0 0.0
2017-Oct-30 14:29N 34°40' E 135°27'0 0.0
2017-Oct-30 13:17N 34°40' E 135°27'0 0.0
2017-Oct-30 12:59N 34°40' E 135°27'0 0.0
2017-Oct-30 12:29N 34°40' E 135°27'0 0.0
2017-Oct-30 11:53N 34°40' E 135°27'0 0.0
2017-Oct-30 11:29N 34°40' E 135°27'0 0.0
2017-Oct-30 10:59N 34°40' E 135°27'0 0.0
2017-Oct-30 10:29N 34°40' E 135°27'0 0.0
2017-Oct-30 02:11N 34°40' E 135°27'  
2017-Oct-24 22:47N 34°40' E 135°27'6 0.3
2017-Oct-24 03:47N 34°43' E 135°20'3 9.1
2017-Oct-24 03:30N 34°40' E 135°22'4 1.0
2017-Oct-23 23:15N 34°40' E 135°27'  

Dump ship's entire track history